Terminal Aerodrome Forecast
Issued by NWS

Home | Current Version | Previous Version | Text Only | Print | Product List | Glossary Off
Versions: 1 2 3 4 5 6 7 8 9 10 11 12 13 14 15 16 17 18

028
FTUS42 KMHX 192320
TAFISO
TAF
KISO 192320Z 2000/2024 VRB03KT 5SM -RA OVC015
     FM200200 VRB03KT P6SM BKN010
     FM200600 VRB03KT 3SM BR BKN006
     FM200900 VRB04KT 1/4SM FG BKN002
     FM201400 20006KT 1SM BR BKN005
     FM201600 20008KT P6SM BKN012
     FM201900 20009KT P6SM SCT030
      AMD LTD TO CLD VIS AND WIND=

USA.gov is the U.S. government's official web portal to all federal, state and local government web resources and services.